KVEL/VEL METAR and TAF weather

Enter ICAO airport designator
Station Type Date Time Source
KVEL METAR 2020/09/22 16:53 UTC NOAA

KVEL 221653Z AUTO 00000KT 10SM FEW110 21/01 A3025 RMK AO2 SLP192 T02060006


Station Type Date Time Source
KVEL Decoded METAR 2020/09/22 16:53 UTC NOAA

VERNAL AIRPORT, UT, United States (KVEL) 40-26N 109-30W 1604M
Sep 22, 2020 - 12:53 PM EDT / 2020.09.22 1653 UTC
Wind: Calm:0
Visibility: 10 mile(s):0
Sky conditions: mostly clear
Temperature: 69.1 F (20.6 C)
Dew Point: 33.1 F (0.6 C)
Relative Humidity: 26%
Pressure (altimeter): 30.25 in. Hg (1024 hPa)
ob: KVEL 221653Z AUTO 00000KT 10SM FEW110 21/01 A3025 RMK AO2 SLP192 T02060006
cycle: 17

Station Type Date Time Source
KVEL TAF 2020/09/22 12:24 UTC NOAA

TAF KVEL 221121Z 2212/2312 21003KT P6SM FEW100 SCT150
FM221900 21006KT P6SM SCT090 BKN130
FM222200 26009KT P6SM SCT100 BKN150
FM230300 31006KT P6SM SCT080 BKN250

Example: see airport list